createdAt,value
2018-11-25T00:02:24.457Z,8.50
2018-11-25T00:04:52.762Z,8.50
2018-11-25T00:07:21.085Z,8.50
2018-11-25T00:09:49.364Z,8.40
2018-11-25T00:12:17.604Z,8.40
2018-11-25T00:14:45.863Z,8.40
2018-11-25T00:17:14.192Z,8.40
2018-11-25T00:19:42.444Z,8.40
2018-11-25T00:22:10.692Z,8.40
2018-11-25T00:24:38.903Z,8.40
2018-11-25T00:27:07.170Z,8.40
2018-11-25T00:29:35.472Z,8.40
2018-11-25T00:32:04.413Z,8.40
2018-11-25T00:34:32.636Z,8.40
2018-11-25T00:37:00.925Z,8.40
2018-11-25T00:39:30.298Z,8.40
2018-11-25T00:41:58.640Z,8.40
2018-11-25T00:44:27.617Z,8.40
2018-11-25T00:46:55.885Z,8.40
2018-11-25T00:49:24.117Z,8.40
2018-11-25T00:51:52.392Z,8.40
2018-11-25T00:54:20.660Z,8.40
2018-11-25T00:56:48.916Z,8.40
2018-11-25T00:59:17.270Z,8.30
2018-11-25T01:01:45.771Z,8.30
2018-11-25T01:04:14.148Z,8.30
2018-11-25T01:06:42.437Z,8.30
2018-11-25T01:09:10.729Z,8.30
2018-11-25T01:11:39.315Z,8.20
2018-11-25T01:14:07.568Z,8.20
2018-11-25T01:16:35.860Z,8.30
2018-11-25T01:19:04.161Z,8.30
2018-11-25T01:21:32.445Z,8.30
2018-11-25T01:24:02.779Z,8.30
2018-11-25T01:26:31.020Z,8.30
2018-11-25T01:28:59.313Z,8.30
2018-11-25T01:31:27.545Z,8.40
2018-11-25T01:33:55.764Z,8.40
2018-11-25T01:36:24.641Z,8.40
2018-11-25T01:38:53.112Z,8.40
2018-11-25T01:41:21.333Z,8.40
2018-11-25T01:43:49.564Z,8.40
2018-11-25T01:46:17.925Z,8.40
2018-11-25T01:48:46.200Z,8.40
2018-11-25T01:51:14.447Z,8.40
2018-11-25T01:53:42.746Z,8.40
2018-11-25T01:56:10.984Z,8.40
2018-11-25T01:58:39.980Z,8.40
2018-11-25T02:01:08.211Z,8.40
2018-11-25T02:03:37.412Z,8.40
2018-11-25T02:06:06.688Z,8.40
2018-11-25T02:08:34.961Z,8.40
2018-11-25T02:11:03.305Z,8.40
2018-11-25T02:13:31.589Z,8.40
2018-11-25T02:15:59.838Z,8.40
2018-11-25T02:18:29.303Z,8.40
2018-11-25T02:20:57.640Z,8.40
2018-11-25T02:23:25.885Z,8.40
2018-11-25T02:25:54.389Z,8.40
2018-11-25T02:28:22.640Z,8.40
2018-11-25T02:30:50.888Z,8.40
2018-11-25T02:33:19.105Z,8.40
2018-11-25T02:35:47.352Z,8.40
2018-11-25T02:38:15.616Z,8.40
2018-11-25T02:40:44.500Z,8.40
2018-11-25T02:43:13.959Z,8.30
2018-11-25T02:45:41.383Z,8.30
2018-11-25T02:48:09.623Z,8.30
2018-11-25T02:50:37.889Z,8.30
2018-11-25T02:53:07.058Z,8.30
2018-11-25T02:55:36.048Z,8.20
2018-11-25T02:58:04.604Z,8.20
2018-11-25T03:00:32.967Z,8.20
2018-11-25T03:03:01.224Z,8.20
2018-11-25T03:05:30.159Z,8.20
2018-11-25T03:07:58.395Z,8.30
2018-11-25T03:10:26.632Z,8.30
2018-11-25T03:12:54.839Z,8.20
2018-11-25T03:15:23.074Z,8.20
2018-11-25T03:17:51.358Z,8.20
2018-11-25T03:20:20.018Z,8.10
2018-11-25T03:22:48.259Z,8.10
2018-11-25T03:25:19.493Z,8.10
2018-11-25T03:27:54.400Z,8.10
2018-11-25T03:30:22.660Z,8.10
2018-11-25T03:32:51.993Z,8.10
2018-11-25T03:35:20.193Z,8.10
2018-11-25T03:37:48.496Z,8.10
2018-11-25T03:40:17.728Z,8.10
2018-11-25T03:42:46.032Z,8.00
2018-11-25T03:45:19.655Z,8.00
2018-11-25T03:47:47.940Z,8.00
2018-11-25T03:50:16.273Z,8.00
2018-11-25T03:52:44.685Z,8.10
2018-11-25T03:55:13.821Z,8.00
2018-11-25T03:57:42.086Z,8.00
2018-11-25T04:00:11.723Z,7.90
2018-11-25T04:02:39.998Z,7.90
2018-11-25T04:05:09.930Z,7.90
2018-11-25T04:07:38.267Z,8.00
2018-11-25T04:10:10.612Z,8.00
2018-11-25T04:12:39.028Z,8.00
2018-11-25T04:15:12.352Z,8.00
2018-11-25T04:17:40.664Z,8.00
2018-11-25T04:20:12.128Z,8.00
2018-11-25T04:22:40.364Z,7.90
2018-11-25T04:25:09.628Z,8.00
2018-11-25T04:27:37.877Z,8.00
2018-11-25T04:30:23.157Z,8.00
2018-11-25T04:32:51.995Z,8.00
2018-11-25T04:35:20.316Z,8.10
2018-11-25T04:37:49.180Z,8.10
2018-11-25T04:40:18.233Z,8.10
2018-11-25T04:42:47.142Z,8.10
2018-11-25T04:45:16.901Z,8.10
2018-11-25T04:47:45.740Z,8.10
2018-11-25T04:50:15.056Z,8.10
2018-11-25T04:52:43.286Z,8.10
2018-11-25T04:55:11.572Z,8.10
2018-11-25T04:57:39.844Z,8.10
2018-11-25T05:00:10.398Z,8.10
2018-11-25T05:02:39.238Z,8.20
2018-11-25T05:05:09.576Z,8.20
2018-11-25T05:07:37.834Z,8.20
2018-11-25T05:10:11.257Z,8.20
2018-11-25T05:12:39.492Z,8.10
2018-11-25T05:15:13.959Z,8.10
2018-11-25T05:17:42.200Z,8.10
2018-11-25T05:20:11.297Z,8.10
2018-11-25T05:22:39.557Z,8.10
2018-11-25T05:25:10.432Z,8.10
2018-11-25T05:27:38.689Z,8.00
2018-11-25T05:30:10.917Z,8.00
2018-11-25T05:32:39.159Z,8.00
2018-11-25T05:35:09.173Z,8.00
2018-11-25T05:37:37.393Z,8.00
2018-11-25T05:40:07.166Z,8.00
2018-11-25T05:42:36.000Z,8.00
2018-11-25T05:45:04.392Z,8.00
2018-11-25T05:47:32.656Z,8.00
2018-11-25T05:50:00.880Z,8.00
2018-11-25T05:52:29.212Z,8.00
2018-11-25T05:54:57.493Z,8.00
2018-11-25T05:57:25.768Z,8.00
2018-11-25T05:59:54.128Z,8.00
2018-11-25T06:02:22.394Z,8.00
2018-11-25T06:04:50.660Z,8.00
2018-11-25T06:07:18.897Z,8.00
2018-11-25T06:09:47.152Z,8.00
2018-11-25T06:12:15.404Z,8.00
2018-11-25T06:14:43.639Z,8.00
2018-11-25T06:17:11.872Z,8.00
2018-11-25T06:19:40.124Z,8.00
2018-11-25T06:22:08.352Z,8.00
2018-11-25T06:24:36.664Z,8.00
2018-11-25T06:27:04.981Z,8.00
2018-11-25T06:29:33.250Z,8.00
2018-11-25T06:32:01.488Z,8.00
2018-11-25T06:34:29.754Z,8.00
2018-11-25T06:36:57.995Z,8.00
2018-11-25T06:39:26.880Z,8.00
2018-11-25T06:41:55.081Z,7.90
2018-11-25T06:44:23.358Z,7.90
2018-11-25T06:46:52.264Z,7.90
2018-11-25T06:49:20.536Z,7.80
2018-11-25T06:51:48.801Z,7.70
2018-11-25T06:54:17.057Z,7.70
2018-11-25T06:56:45.404Z,7.70
2018-11-25T06:59:13.647Z,7.60
2018-11-25T07:01:41.878Z,7.60
2018-11-25T07:04:10.089Z,7.60
2018-11-25T07:06:38.324Z,7.50
2018-11-25T07:09:10.098Z,7.40
2018-11-25T07:11:38.353Z,7.40
2018-11-25T07:14:06.620Z,7.40
2018-11-25T07:16:34.906Z,7.40
2018-11-25T07:19:03.197Z,7.40
2018-11-25T07:21:31.455Z,7.40
2018-11-25T07:23:59.783Z,7.30
2018-11-25T07:26:28.002Z,7.30
2018-11-25T07:28:56.246Z,7.30
2018-11-25T07:31:24.509Z,7.30
2018-11-25T07:33:52.764Z,7.20
2018-11-25T07:36:21.640Z,7.20
2018-11-25T07:38:49.926Z,7.20
2018-11-25T07:41:18.228Z,7.20
2018-11-25T07:43:46.563Z,7.20
2018-11-25T07:46:14.816Z,7.30
2018-11-25T07:48:43.732Z,7.30
2018-11-25T07:51:11.963Z,7.30
2018-11-25T07:53:40.303Z,7.40
2018-11-25T07:56:08.535Z,7.40
2018-11-25T07:58:36.771Z,7.40
2018-11-25T08:01:05.037Z,7.50
2018-11-25T08:03:33.892Z,7.50
2018-11-25T08:06:02.158Z,7.60
2018-11-25T08:08:30.700Z,7.60
2018-11-25T08:10:58.981Z,7.60
2018-11-25T08:13:27.237Z,7.70
2018-11-25T08:15:55.488Z,7.70
2018-11-25T08:18:23.760Z,7.70
2018-11-25T08:20:52.065Z,7.70
2018-11-25T08:23:20.312Z,7.70
2018-11-25T08:25:48.593Z,7.70
2018-11-25T08:28:16.847Z,7.70
2018-11-25T08:30:45.201Z,7.70
2018-11-25T08:33:13.464Z,7.70
2018-11-25T08:35:41.744Z,7.70
2018-11-25T08:38:09.955Z,7.70
2018-11-25T08:40:38.229Z,7.70
2018-11-25T08:43:06.565Z,7.70
2018-11-25T08:45:35.473Z,7.70
2018-11-25T08:48:03.721Z,7.70
2018-11-25T08:50:32.070Z,7.70
2018-11-25T08:53:00.292Z,7.70
2018-11-25T08:55:28.538Z,7.70
2018-11-25T08:57:56.767Z,7.70
2018-11-25T09:00:27.364Z,7.70
2018-11-25T09:02:56.885Z,7.70
2018-11-25T09:05:25.149Z,7.80
2018-11-25T09:07:53.440Z,7.90
2018-11-25T09:10:22.914Z,7.90
2018-11-25T09:12:55.954Z,8.00
2018-11-25T09:15:22.964Z,8.10
2018-11-25T09:17:51.211Z,8.20
2018-11-25T09:20:21.762Z,8.30
2018-11-25T09:22:50.740Z,8.50
2018-11-25T09:25:24.057Z,8.60
2018-11-25T09:27:52.271Z,8.80
2018-11-25T09:30:25.384Z,8.80
2018-11-25T09:32:53.681Z,8.90
2018-11-25T09:35:21.981Z,8.90
2018-11-25T09:37:50.276Z,8.90
2018-11-25T09:40:19.716Z,9.00
2018-11-25T09:42:48.682Z,9.00
2018-11-25T09:45:18.013Z,9.00
2018-11-25T09:47:46.327Z,9.00
2018-11-25T09:50:17.321Z,9.10
2018-11-25T09:52:45.522Z,9.20
2018-11-25T09:55:15.503Z,9.40
2018-11-25T09:57:45.500Z,9.50
2018-11-25T10:00:16.323Z,9.60
2018-11-25T10:02:44.576Z,9.60
2018-11-25T10:05:12.965Z,9.60
2018-11-25T10:07:41.172Z,9.70
2018-11-25T10:10:16.585Z,9.70
2018-11-25T10:12:44.838Z,9.70
2018-11-25T10:15:15.082Z,9.70
2018-11-25T10:17:43.310Z,9.70
2018-11-25T10:20:34.507Z,9.70
2018-11-25T10:23:02.765Z,9.70
2018-11-25T10:25:30.992Z,9.70
2018-11-25T10:27:59.256Z,9.80
2018-11-25T10:30:28.505Z,9.80
2018-11-25T10:32:58.832Z,9.90
2018-11-25T10:35:27.026Z,9.90
2018-11-25T10:37:55.333Z,9.90
2018-11-25T10:40:24.939Z,9.90
2018-11-25T10:42:53.200Z,9.80
2018-11-25T10:45:23.432Z,9.80
2018-11-25T10:47:51.680Z,9.80
2018-11-25T10:50:21.033Z,9.80
2018-11-25T10:52:49.423Z,9.80
2018-11-25T10:55:18.567Z,9.90
2018-11-25T10:57:47.536Z,9.80
2018-11-25T11:00:27.466Z,9.90
2018-11-25T11:03:01.047Z,9.90
2018-11-25T11:05:34.745Z,9.80
2018-11-25T11:08:03.096Z,9.80
2018-11-25T11:10:31.900Z,9.90
2018-11-25T11:13:01.374Z,10.00
2018-11-25T11:15:29.617Z,10.10
2018-11-25T11:17:57.849Z,10.20
2018-11-25T11:20:26.161Z,10.20
2018-11-25T11:22:55.114Z,10.30
2018-11-25T11:25:23.299Z,10.40
2018-11-25T11:27:51.683Z,10.40
2018-11-25T11:30:19.928Z,10.40
2018-11-25T11:32:49.648Z,10.40
2018-11-25T11:35:17.983Z,10.40
2018-11-25T11:37:46.338Z,10.40
2018-11-25T11:40:15.219Z,10.40
2018-11-25T11:42:43.872Z,10.30
2018-11-25T11:45:15.731Z,10.30
2018-11-25T11:47:44.631Z,10.20
2018-11-25T11:50:15.048Z,10.20
2018-11-25T11:52:43.604Z,10.20
2018-11-25T11:55:12.724Z,10.10
2018-11-25T11:57:41.500Z,10.20
2018-11-25T12:00:19.657Z,10.20
2018-11-25T12:02:47.975Z,10.20
2018-11-25T12:05:16.243Z,10.30
2018-11-25T12:07:44.480Z,10.30
2018-11-25T12:10:13.718Z,10.30
2018-11-25T12:12:42.028Z,10.30
2018-11-25T12:15:16.681Z,10.40
2018-11-25T12:17:44.976Z,10.40
2018-11-25T12:20:13.268Z,10.40
2018-11-25T12:22:41.674Z,10.40
2018-11-25T12:25:11.705Z,10.50
2018-11-25T12:27:39.964Z,10.50
2018-11-25T12:30:10.113Z,10.50
2018-11-25T12:32:38.670Z,10.50
2018-11-25T12:35:07.573Z,10.50
2018-11-25T12:37:36.441Z,10.50
2018-11-25T12:40:06.283Z,10.40
2018-11-25T12:42:35.232Z,10.50
2018-11-25T12:45:03.538Z,10.50
2018-11-25T12:47:31.785Z,10.50
2018-11-25T12:50:00.083Z,10.40
2018-11-25T12:52:28.408Z,10.30
2018-11-25T12:54:57.285Z,10.30
2018-11-25T12:57:25.876Z,10.30
2018-11-25T12:59:54.268Z,10.30
2018-11-25T13:02:23.076Z,10.30
2018-11-25T13:04:51.980Z,10.40
2018-11-25T13:07:20.221Z,10.50
2018-11-25T13:09:48.483Z,10.50
2018-11-25T13:12:16.714Z,10.40
2018-11-25T13:14:45.149Z,10.40
2018-11-25T13:17:13.425Z,10.40
2018-11-25T13:19:42.637Z,10.50
2018-11-25T13:22:10.908Z,10.50
2018-11-25T13:24:39.172Z,10.40
2018-11-25T13:27:07.423Z,10.40
2018-11-25T13:29:35.755Z,10.40
2018-11-25T13:32:04.022Z,10.30
2018-11-25T13:34:32.304Z,10.30
2018-11-25T13:37:00.609Z,10.20
2018-11-25T13:39:30.291Z,10.20
2018-11-25T13:41:58.302Z,10.20
2018-11-25T13:44:26.624Z,10.20
2018-11-25T13:46:54.907Z,10.20
2018-11-25T13:49:23.239Z,10.20
2018-11-25T13:51:51.521Z,10.20
2018-11-25T13:54:19.765Z,10.20
2018-11-25T13:56:48.029Z,10.10
2018-11-25T13:59:17.611Z,10.10
2018-11-25T14:01:46.712Z,10.10
2018-11-25T14:04:16.062Z,10.10
2018-11-25T14:06:45.585Z,10.10
2018-11-25T14:09:16.064Z,10.10
2018-11-25T14:11:44.312Z,10.10
2018-11-25T14:14:13.069Z,10.10
2018-11-25T14:16:41.293Z,10.10
2018-11-25T14:19:10.172Z,10.10
2018-11-25T14:21:39.445Z,10.10
2018-11-25T14:24:07.709Z,10.10
2018-11-25T14:26:41.601Z,10.00
2018-11-25T14:29:09.837Z,9.90
2018-11-25T14:31:38.084Z,9.90
2018-11-25T14:34:06.459Z,9.80
2018-11-25T14:36:34.777Z,9.80
2018-11-25T14:39:03.071Z,9.70
2018-11-25T14:41:31.360Z,9.60
2018-11-25T14:43:59.589Z,9.60
2018-11-25T14:46:27.912Z,9.60
2018-11-25T14:48:56.171Z,9.50
2018-11-25T14:51:24.445Z,9.40
2018-11-25T14:53:52.738Z,9.40
2018-11-25T14:56:20.972Z,9.40
2018-11-25T14:58:49.305Z,9.40
2018-11-25T15:01:17.603Z,9.40
2018-11-25T15:03:45.960Z,9.30
2018-11-25T15:06:14.219Z,9.20
2018-11-25T15:08:42.453Z,9.20
2018-11-25T15:11:10.694Z,9.20
2018-11-25T15:13:38.980Z,9.10
2018-11-25T15:16:09.412Z,9.10
2018-11-25T15:18:37.720Z,9.00
2018-11-25T15:21:07.539Z,9.00
2018-11-25T15:23:35.861Z,9.00
2018-11-25T15:26:04.130Z,8.90
2018-11-25T15:28:32.496Z,8.90
2018-11-25T15:31:00.823Z,8.90
2018-11-25T15:33:29.080Z,8.90
2018-11-25T15:35:57.360Z,8.80
2018-11-25T15:38:25.572Z,8.80
2018-11-25T15:40:53.851Z,8.80
2018-11-25T15:43:22.181Z,8.80
2018-11-25T15:45:50.459Z,8.70
2018-11-25T15:48:20.511Z,8.70
2018-11-25T15:50:48.792Z,8.70
2018-11-25T15:53:18.057Z,8.70
2018-11-25T15:55:46.836Z,8.70
2018-11-25T15:58:15.083Z,8.70
2018-11-25T16:00:43.318Z,8.70
2018-11-25T16:03:12.276Z,8.60
2018-11-25T16:05:44.059Z,8.60
2018-11-25T16:08:12.971Z,8.60
2018-11-25T16:10:41.593Z,8.60
2018-11-25T16:13:10.053Z,8.50
2018-11-25T16:15:38.492Z,8.50
2018-11-25T16:18:08.165Z,8.50
2018-11-25T16:20:36.408Z,8.40
2018-11-25T16:23:07.750Z,8.40
2018-11-25T16:25:39.248Z,8.40
2018-11-25T16:28:13.412Z,8.40
2018-11-25T16:30:41.640Z,8.40
2018-11-25T16:33:10.613Z,8.40
2018-11-25T16:35:39.284Z,8.40
2018-11-25T16:38:08.096Z,8.40
2018-11-25T16:40:36.371Z,8.40
2018-11-25T16:43:05.119Z,8.30
2018-11-25T16:45:33.392Z,8.30
2018-11-25T16:48:01.762Z,8.30
2018-11-25T16:50:30.729Z,8.30
2018-11-25T16:52:58.977Z,8.30
2018-11-25T16:55:27.218Z,8.30
2018-11-25T16:57:56.991Z,8.30
2018-11-25T17:00:25.337Z,8.20
2018-11-25T17:02:53.578Z,8.20
2018-11-25T17:05:26.262Z,8.20
2018-11-25T17:07:59.555Z,8.10
2018-11-25T17:10:27.902Z,8.10
2018-11-25T17:12:56.146Z,8.00
2018-11-25T17:15:27.172Z,8.00
2018-11-25T17:17:55.400Z,8.00
2018-11-25T17:20:23.860Z,8.00
2018-11-25T17:22:52.151Z,7.90
2018-11-25T17:25:20.354Z,7.90
2018-11-25T17:27:48.579Z,8.00
2018-11-25T17:30:18.257Z,8.00
2018-11-25T17:32:46.928Z,7.90
2018-11-25T17:35:17.784Z,7.90
2018-11-25T17:37:46.097Z,7.90
2018-11-25T17:40:14.256Z,7.90
2018-11-25T17:42:42.873Z,7.90
2018-11-25T17:45:12.204Z,7.90
2018-11-25T17:47:40.608Z,7.90
2018-11-25T17:50:13.800Z,7.80
2018-11-25T17:52:42.092Z,7.80
2018-11-25T17:55:12.077Z,7.80
2018-11-25T17:57:40.369Z,7.80
2018-11-25T18:00:46.544Z,7.80
2018-11-25T18:03:22.472Z,7.80
2018-11-25T18:05:51.390Z,7.70
2018-11-25T18:08:19.665Z,7.70
2018-11-25T18:10:47.966Z,7.70
2018-11-25T18:13:17.284Z,7.70
2018-11-25T18:15:45.833Z,7.70
2018-11-25T18:18:15.974Z,7.70
2018-11-25T18:20:50.249Z,7.70
2018-11-25T18:23:18.616Z,7.70
2018-11-25T18:25:46.899Z,7.70
2018-11-25T18:28:15.158Z,7.70
2018-11-25T18:30:43.452Z,7.70
2018-11-25T18:33:11.761Z,7.70
2018-11-25T18:35:40.016Z,7.70
2018-11-25T18:38:08.704Z,7.70
2018-11-25T18:40:36.984Z,7.80
2018-11-25T18:43:05.912Z,7.80
2018-11-25T18:45:34.360Z,7.80
2018-11-25T18:48:03.449Z,7.80
2018-11-25T18:50:31.725Z,7.80
2018-11-25T18:53:00.007Z,7.80
2018-11-25T18:55:27.196Z,7.80
2018-11-25T18:57:55.461Z,7.80
2018-11-25T19:00:31.158Z,7.80
2018-11-25T19:02:59.407Z,7.80
2018-11-25T19:05:27.598Z,7.80
2018-11-25T19:07:56.280Z,7.80
2018-11-25T19:10:24.552Z,7.80
2018-11-25T19:12:53.168Z,7.70
2018-11-25T19:15:21.476Z,7.70
2018-11-25T19:17:49.759Z,7.70
2018-11-25T19:20:19.756Z,7.70
2018-11-25T19:22:48.330Z,7.70
2018-11-25T19:25:17.272Z,7.70
2018-11-25T19:27:46.452Z,7.70
2018-11-25T19:30:15.599Z,7.70
2018-11-25T19:32:46.818Z,7.70
2018-11-25T19:35:17.108Z,7.70
2018-11-25T19:37:46.257Z,7.70
2018-11-25T19:40:15.606Z,7.70
2018-11-25T19:42:44.384Z,7.60
2018-11-25T19:45:17.518Z,7.60
2018-11-25T19:47:46.152Z,7.60
2018-11-25T19:50:23.482Z,7.60
2018-11-25T19:52:51.741Z,7.50
2018-11-25T19:55:19.991Z,7.50
2018-11-25T19:57:48.266Z,7.50
2018-11-25T20:00:25.079Z,7.40
2018-11-25T20:02:56.832Z,7.40
2018-11-25T20:05:25.060Z,7.50
2018-11-25T20:07:54.043Z,7.40
2018-11-25T20:10:23.580Z,7.40
2018-11-25T20:12:53.945Z,7.40
2018-11-25T20:15:22.162Z,7.40
2018-11-25T20:17:54.424Z,7.40
2018-11-25T20:20:20.352Z,7.40
2018-11-25T20:22:49.003Z,7.40
2018-11-25T20:25:17.807Z,7.30
2018-11-25T20:27:49.036Z,7.30
2018-11-25T20:30:21.281Z,7.30
2018-11-25T20:32:54.856Z,7.30
2018-11-25T20:35:23.946Z,7.20
2018-11-25T20:37:57.624Z,7.20
2018-11-25T20:40:25.860Z,7.20
2018-11-25T20:42:54.253Z,7.30
2018-11-25T20:45:28.273Z,7.30
2018-11-25T20:47:59.102Z,7.30
2018-11-25T20:50:26.484Z,7.30
2018-11-25T20:53:00.097Z,7.30
2018-11-25T20:55:28.368Z,7.30
2018-11-25T20:57:56.616Z,7.40
2018-11-25T21:00:26.295Z,7.40
2018-11-25T21:02:54.707Z,7.40
2018-11-25T21:05:23.856Z,7.40
2018-11-25T21:07:52.296Z,7.40
2018-11-25T21:10:20.793Z,7.40
2018-11-25T21:12:55.653Z,7.40
2018-11-25T21:15:23.910Z,7.40
2018-11-25T21:17:53.092Z,7.50
2018-11-25T21:20:22.939Z,7.50
2018-11-25T21:22:51.246Z,7.50
2018-11-25T21:25:20.480Z,7.50
2018-11-25T21:27:48.702Z,7.50
2018-11-25T21:30:18.720Z,7.50
2018-11-25T21:32:47.862Z,7.50
2018-11-25T21:35:16.114Z,7.50
2018-11-25T21:37:44.377Z,7.50
2018-11-25T21:40:16.748Z,7.50
2018-11-25T21:42:45.006Z,7.60
2018-11-25T21:45:15.463Z,7.60
2018-11-25T21:47:43.796Z,7.60
2018-11-25T21:50:15.452Z,7.60
2018-11-25T21:52:43.702Z,7.60
2018-11-25T21:55:14.123Z,7.60
2018-11-25T21:57:42.363Z,7.60
2018-11-25T22:00:18.385Z,7.60
2018-11-25T22:02:46.700Z,7.60
2018-11-25T22:05:15.372Z,7.50
2018-11-25T22:07:43.624Z,7.50
2018-11-25T22:10:16.424Z,7.50
2018-11-25T22:12:45.043Z,7.50
2018-11-25T22:15:14.395Z,7.60
2018-11-25T22:17:42.688Z,7.60
2018-11-25T22:20:11.885Z,7.50
2018-11-25T22:22:40.164Z,7.50
2018-11-25T22:25:09.783Z,7.50
2018-11-25T22:27:38.056Z,7.50
2018-11-25T22:30:13.785Z,7.50
2018-11-25T22:32:43.056Z,7.50
2018-11-25T22:35:12.465Z,7.50
2018-11-25T22:37:41.994Z,7.50
2018-11-25T22:40:10.169Z,7.50
2018-11-25T22:42:39.196Z,7.50
2018-11-25T22:45:10.750Z,7.50
2018-11-25T22:47:39.040Z,7.50
2018-11-25T22:50:10.589Z,7.50
2018-11-25T22:52:38.876Z,7.60
2018-11-25T22:55:12.192Z,7.60
2018-11-25T22:57:41.706Z,7.50
2018-11-25T23:00:27.030Z,7.50
2018-11-25T23:02:55.302Z,7.50
2018-11-25T23:05:35.085Z,7.50
2018-11-25T23:08:03.353Z,7.50
2018-11-25T23:10:31.614Z,7.50
2018-11-25T23:13:00.920Z,7.50
2018-11-25T23:15:29.215Z,7.50
2018-11-25T23:17:57.470Z,7.60
2018-11-25T23:20:25.751Z,7.50
2018-11-25T23:23:00.732Z,7.50
2018-11-25T23:25:28.983Z,7.50
2018-11-25T23:27:57.204Z,7.50
2018-11-25T23:30:26.042Z,7.50
2018-11-25T23:32:54.331Z,7.50
2018-11-25T23:35:24.947Z,7.50
2018-11-25T23:37:53.295Z,7.50
2018-11-25T23:40:21.690Z,7.50
2018-11-25T23:42:50.169Z,7.50
2018-11-25T23:45:18.459Z,7.50
2018-11-25T23:47:47.150Z,7.50
2018-11-25T23:50:15.662Z,7.50
2018-11-25T23:52:45.510Z,7.50
2018-11-25T23:55:14.380Z,7.50
2018-11-25T23:57:42.625Z,7.50
